Time;durP1;ratioP1;P1;durP2;ratioP2;P2;SDS_P1;SDS_P2;PMS_P1;PMS_P2;Temp;Humidity;BMP_temperature;BMP_pressure;BME280_temperature;BME280_humidity;BME280_pressure;Samples;Min_cycle;Max_cycle;Signal;HPM_P1;HPM_P2
2023/12/18 00:00:04;;;;;;;39.83;18.15;;;;;;;;;;2094096;28;20073;-80
2023/12/18 00:01:25;;;;;;;27.27;16.02;;;;;;;;;;2098633;28;20039;-79
2023/12/18 00:02:46;;;;;;;27.33;15.63;;;;;;;;;;2095722;28;20028;-80
2023/12/18 00:04:07;;;;;;;33.53;15.50;;;;;;;;;;2096760;28;20462;-79
2023/12/18 00:05:28;;;;;;;31.13;15.35;;;;;;;;;;2095901;28;20118;-80
2023/12/18 00:06:49;;;;;;;30.60;16.33;;;;;;;;;;2094330;28;20036;-79
2023/12/18 00:08:11;;;;;;;28.10;15.45;;;;;;;;;;2091963;28;20440;-80
2023/12/18 00:09:32;;;;;;;29.70;16.25;;;;;;;;;;2088580;28;20033;-80
2023/12/18 00:10:53;;;;;;;26.40;15.77;;;;;;;;;;2093598;28;20071;-79
2023/12/18 00:12:13;;;;;;;32.30;16.63;;;;;;;;;;2087905;28;20044;-79
2023/12/18 00:13:34;;;;;;;25.17;16.20;;;;;;;;;;2097088;28;20093;-79
2023/12/18 00:14:55;;;;;;;27.92;15.73;;;;;;;;;;2098413;28;20024;-80
2023/12/18 00:16:16;;;;;;;27.13;15.38;;;;;;;;;;2089527;28;20029;-80
2023/12/18 00:17:37;;;;;;;30.83;15.43;;;;;;;;;;2098090;28;20029;-80
2023/12/18 00:18:58;;;;;;;29.98;17.25;;;;;;;;;;2102761;28;20059;-80
2023/12/18 00:20:19;;;;;;;29.15;16.55;;;;;;;;;;2096872;28;20135;-80
2023/12/18 00:21:40;;;;;;;28.65;16.75;;;;;;;;;;2094095;28;20496;-80
2023/12/18 00:23:01;;;;;;;31.05;16.00;;;;;;;;;;2095060;28;20041;-80
2023/12/18 00:24:22;;;;;;;32.60;17.33;;;;;;;;;;2095168;28;20028;-80
2023/12/18 00:25:43;;;;;;;28.08;15.63;;;;;;;;;;2092991;28;20036;-80
2023/12/18 00:27:04;;;;;;;33.40;18.85;;;;;;;;;;2092585;28;20032;-80
2023/12/18 00:28:25;;;;;;;27.80;16.15;;;;;;;;;;2095176;28;20038;-79
2023/12/18 00:29:46;;;;;;;32.50;17.25;;;;;;;;;;2095163;28;20427;-77
2023/12/18 00:31:07;;;;;;;24.88;15.30;;;;;;;;;;2097066;28;20044;-80
2023/12/18 00:32:28;;;;;;;30.90;17.15;;;;;;;;;;2090111;28;20032;-77
2023/12/18 00:33:48;;;;;;;32.42;17.40;;;;;;;;;;2093956;28;20029;-78
2023/12/18 00:35:09;;;;;;;24.27;16.05;;;;;;;;;;2094365;28;20029;-80
2023/12/18 00:36:30;;;;;;;29.75;15.75;;;;;;;;;;2096432;28;20050;-78
2023/12/18 00:37:51;;;;;;;29.83;16.08;;;;;;;;;;2091390;28;20029;-80
2023/12/18 00:39:15;;;;;;;30.33;18.77;;;;;;;;;;2094186;28;20020;-79
2023/12/18 00:40:36;;;;;;;30.65;16.50;;;;;;;;;;2091153;28;20091;-80
2023/12/18 00:41:57;;;;;;;33.15;16.52;;;;;;;;;;2092964;28;20067;-78
2023/12/18 00:43:18;;;;;;;30.65;17.42;;;;;;;;;;2093136;28;20052;-78
2023/12/18 00:44:39;;;;;;;31.30;16.45;;;;;;;;;;2092569;28;20033;-79
2023/12/18 00:46:02;;;;;;;30.83;17.33;;;;;;;;;;2092016;28;20388;-78
2023/12/18 00:47:23;;;;;;;30.95;16.55;;;;;;;;;;2087915;28;20036;-78
2023/12/18 00:48:44;;;;;;;26.80;15.90;;;;;;;;;;2093907;28;20024;-78
2023/12/18 00:50:07;;;;;;;28.27;16.20;;;;;;;;;;2093951;28;20032;-78
2023/12/18 00:51:28;;;;;;;28.20;17.10;;;;;;;;;;2094322;28;20036;-77
2023/12/18 00:52:49;;;;;;;33.33;18.58;;;;;;;;;;2096429;28;20496;-79
2023/12/18 00:54:10;;;;;;;28.92;15.52;;;;;;;;;;2095836;28;20028;-78
2023/12/18 00:55:31;;;;;;;31.20;16.17;;;;;;;;;;2094825;28;20427;-78
2023/12/18 00:56:52;;;;;;;31.48;16.92;;;;;;;;;;2093690;28;20037;-78
2023/12/18 00:58:13;;;;;;;36.35;17.20;;;;;;;;;;2092336;28;20025;-78
2023/12/18 00:59:34;;;;;;;30.77;16.42;;;;;;;;;;2091617;28;20032;-78
2023/12/18 01:00:55;;;;;;;32.53;16.83;;;;;;;;;;2090056;28;20070;-78
2023/12/18 01:02:16;;;;;;;30.15;17.45;;;;;;;;;;2091075;28;20086;-78
2023/12/18 01:03:38;;;;;;;28.05;16.48;;;;;;;;;;2093266;28;20475;-78
2023/12/18 01:04:59;;;;;;;34.13;16.52;;;;;;;;;;2092032;28;20037;-78
2023/12/18 01:06:19;;;;;;;35.67;18.42;;;;;;;;;;2093378;28;20029;-78
2023/12/18 01:07:41;;;;;;;36.95;17.77;;;;;;;;;;2100162;28;20031;-79
2023/12/18 01:09:02;;;;;;;37.00;16.48;;;;;;;;;;2102603;28;20036;-78
2023/12/18 01:10:23;;;;;;;28.73;17.35;;;;;;;;;;2094177;28;20400;-79
2023/12/18 01:11:44;;;;;;;30.98;16.08;;;;;;;;;;2090753;28;20033;-78
2023/12/18 01:13:05;;;;;;;31.20;16.35;;;;;;;;;;2100075;28;20395;-78
2023/12/18 01:14:26;;;;;;;29.30;17.00;;;;;;;;;;2101186;28;20048;-78
2023/12/18 01:15:47;;;;;;;33.67;17.73;;;;;;;;;;2102153;28;20035;-78
2023/12/18 01:17:08;;;;;;;34.05;16.00;;;;;;;;;;2095729;28;20040;-78
2023/12/18 01:18:29;;;;;;;28.23;17.15;;;;;;;;;;2101937;28;20487;-78
2023/12/18 01:19:53;;;;;;;31.15;18.02;;;;;;;;;;2097644;28;20400;-78
2023/12/18 01:21:14;;;;;;;29.85;17.95;;;;;;;;;;2086320;28;20030;-78
2023/12/18 01:22:35;;;;;;;33.85;16.80;;;;;;;;;;2091445;28;20029;-78
2023/12/18 01:23:56;;;;;;;37.35;17.83;;;;;;;;;;2088038;28;20088;-78
2023/12/18 01:25:17;;;;;;;28.55;18.17;;;;;;;;;;2081349;28;20046;-79
2023/12/18 01:26:38;;;;;;;32.92;17.08;;;;;;;;;;2070976;28;20562;-77
2023/12/18 01:27:59;;;;;;;33.85;17.33;;;;;;;;;;2085162;28;20055;-78
2023/12/18 01:29:20;;;;;;;28.50;14.73;;;;;;;;;;2094384;28;20080;-78
2023/12/18 01:30:41;;;;;;;30.75;16.17;;;;;;;;;;2088752;28;20040;-78
2023/12/18 01:32:02;;;;;;;32.15;16.98;;;;;;;;;;2092186;28;20112;-78
2023/12/18 01:33:23;;;;;;;31.38;18.48;;;;;;;;;;2095095;28;20484;-78
2023/12/18 01:34:44;;;;;;;33.78;16.17;;;;;;;;;;2091200;28;20045;-78
2023/12/18 01:36:05;;;;;;;30.33;18.02;;;;;;;;;;2090698;28;20392;-78
2023/12/18 01:37:26;;;;;;;38.33;18.73;;;;;;;;;;2097038;28;20345;-79
2023/12/18 01:38:47;;;;;;;31.55;17.63;;;;;;;;;;2098960;28;20036;-78
2023/12/18 01:40:08;;;;;;;26.45;16.48;;;;;;;;;;2102701;28;20024;-79
2023/12/18 01:41:29;;;;;;;32.08;18.17;;;;;;;;;;2095957;28;20037;-78
2023/12/18 01:42:50;;;;;;;33.00;18.50;;;;;;;;;;2084829;28;20013;-78
2023/12/18 01:44:11;;;;;;;36.10;17.90;;;;;;;;;;2085384;28;20039;-78
2023/12/18 01:45:32;;;;;;;30.05;15.70;;;;;;;;;;2099855;28;20028;-79
2023/12/18 01:46:54;;;;;;;33.20;17.67;;;;;;;;;;2082857;28;20021;-80
2023/12/18 01:48:15;;;;;;;33.88;16.50;;;;;;;;;;2100199;28;20040;-80
2023/12/18 01:49:37;;;;;;;29.58;17.35;;;;;;;;;;2087213;28;20033;-79
2023/12/18 01:50:58;;;;;;;31.55;17.25;;;;;;;;;;2077478;28;20354;-79
2023/12/18 01:52:19;;;;;;;31.48;18.35;;;;;;;;;;2085073;28;20021;-80
2023/12/18 01:53:45;;;;;;;34.00;17.67;;;;;;;;;;2094272;28;20077;-80
2023/12/18 01:55:06;;;;;;;25.60;17.52;;;;;;;;;;2088738;28;20508;-80
2023/12/18 01:56:30;;;;;;;36.90;18.05;;;;;;;;;;2091720;28;20031;-80
2023/12/18 01:57:51;;;;;;;33.08;18.08;;;;;;;;;;2094153;28;20036;-80
2023/12/18 01:59:13;;;;;;;33.20;18.80;;;;;;;;;;2087975;28;20492;-80
2023/12/18 02:00:34;;;;;;;36.00;18.05;;;;;;;;;;2085428;28;20071;-80
2023/12/18 02:01:55;;;;;;;29.23;17.73;;;;;;;;;;2085239;28;20036;-80
2023/12/18 02:03:16;;;;;;;27.92;17.63;;;;;;;;;;2084527;28;20032;-80
2023/12/18 02:04:37;;;;;;;33.20;18.35;;;;;;;;;;2078328;28;20037;-80
2023/12/18 02:05:59;;;;;;;35.85;17.73;;;;;;;;;;2079013;28;20034;-80
2023/12/18 02:07:20;;;;;;;34.22;17.77;;;;;;;;;;2091885;28;20540;-80
2023/12/18 02:08:41;;;;;;;39.25;20.92;;;;;;;;;;2092248;28;20673;-80
2023/12/18 02:10:02;;;;;;;28.27;16.50;;;;;;;;;;2087897;28;20489;-80
2023/12/18 02:11:24;;;;;;;36.20;19.20;;;;;;;;;;2093714;28;20044;-80
2023/12/18 02:12:44;;;;;;;40.90;19.00;;;;;;;;;;2092586;28;20101;-80
2023/12/18 02:14:05;;;;;;;31.08;17.50;;;;;;;;;;2092014;28;20036;-78
2023/12/18 02:15:26;;;;;;;35.42;18.23;;;;;;;;;;2097876;28;20046;-78
2023/12/18 02:16:47;;;;;;;41.97;19.73;;;;;;;;;;2094022;28;20573;-78
2023/12/18 02:18:08;;;;;;;33.35;18.08;;;;;;;;;;2086845;28;20095;-78
2023/12/18 02:19:29;;;;;;;35.10;16.48;;;;;;;;;;2091964;28;20024;-79
2023/12/18 02:20:50;;;;;;;38.65;19.67;;;;;;;;;;2101555;28;20566;-78
2023/12/18 02:22:11;;;;;;;34.83;19.33;;;;;;;;;;2096146;28;20055;-78
2023/12/18 02:23:32;;;;;;;36.85;18.98;;;;;;;;;;2091574;28;20028;-78
2023/12/18 02:24:53;;;;;;;39.15;18.42;;;;;;;;;;2092894;28;20075;-79
2023/12/18 02:26:15;;;;;;;35.38;18.50;;;;;;;;;;2092895;28;20074;-77
2023/12/18 02:27:36;;;;;;;;;;;;;;;;;;2093584;28;20021;-78
2023/12/18 02:28:57;;;;;;;37.72;22.70;;;;;;;;;;2098957;28;19919;-78
2023/12/18 02:30:19;;;;;;;42.85;22.05;;;;;;;;;;2092516;28;20040;-79
2023/12/18 02:31:40;;;;;;;;;;;;;;;;;;2084321;28;20091;-79
2023/12/18 02:33:01;;;;;;;36.22;19.38;;;;;;;;;;2092889;28;19912;-79
2023/12/18 02:34:22;;;;;;;41.47;20.40;;;;;;;;;;2085758;28;20129;-78
2023/12/18 02:35:43;;;;;;;31.73;19.27;;;;;;;;;;2084267;28;20389;-78
2023/12/18 02:37:04;;;;;;;30.83;18.15;;;;;;;;;;2083963;28;20029;-78
2023/12/18 02:38:25;;;;;;;35.38;20.30;;;;;;;;;;2081132;28;20041;-78
2023/12/18 02:39:46;;;;;;;35.17;18.42;;;;;;;;;;2083582;28;20025;-79
2023/12/18 02:41:07;;;;;;;32.53;18.00;;;;;;;;;;2087290;28;20048;-79
2023/12/18 02:42:27;;;;;;;36.08;21.10;;;;;;;;;;2087951;28;20116;-78
2023/12/18 02:43:48;;;;;;;35.17;20.52;;;;;;;;;;2090751;28;20134;-78
2023/12/18 02:45:10;;;;;;;37.35;19.20;;;;;;;;;;2091290;28;20025;-79
2023/12/18 02:46:31;;;;;;;40.22;24.45;;;;;;;;;;2090517;28;20036;-78
2023/12/18 02:47:52;;;;;;;31.00;17.80;;;;;;;;;;2089481;28;20546;-79
2023/12/18 02:49:13;;;;;;;36.70;22.17;;;;;;;;;;2092483;28;20033;-78
2023/12/18 02:50:34;;;;;;;37.83;18.10;;;;;;;;;;2099610;28;20123;-78
2023/12/18 02:51:54;;;;;;;33.97;19.05;;;;;;;;;;2101048;28;20033;-78
2023/12/18 02:53:17;;;;;;;38.60;18.73;;;;;;;;;;2100389;28;20085;-78
2023/12/18 02:54:38;;;;;;;33.25;18.25;;;;;;;;;;2094183;28;20401;-78
2023/12/18 02:55:59;;;;;;;38.65;18.10;;;;;;;;;;2097208;28;20099;-80
2023/12/18 02:57:20;;;;;;;36.05;19.35;;;;;;;;;;2094363;28;20487;-78
2023/12/18 02:58:41;;;;;;;31.95;18.58;;;;;;;;;;2093645;28;20037;-78
2023/12/18 03:00:03;;;;;;;32.13;19.95;;;;;;;;;;2094812;28;20024;-78
2023/12/18 03:01:23;;;;;;;40.55;19.67;;;;;;;;;;2096957;28;20119;-78
2023/12/18 03:02:44;;;;;;;35.55;19.25;;;;;;;;;;2102383;28;20029;-78
2023/12/18 03:04:05;;;;;;;39.28;19.85;;;;;;;;;;2094185;28;20447;-79
2023/12/18 03:05:26;;;;;;;43.47;20.08;;;;;;;;;;2089954;28;20029;-78
2023/12/18 03:06:47;;;;;;;36.97;17.95;;;;;;;;;;2097158;28;20100;-79
2023/12/18 03:08:08;;;;;;;30.80;16.92;;;;;;;;;;2092646;28;20055;-79
2023/12/18 03:09:29;;;;;;;40.53;19.17;;;;;;;;;;2101860;28;20036;-79
2023/12/18 03:10:53;;;;;;;38.13;19.52;;;;;;;;;;2093292;28;20041;-78
2023/12/18 03:12:14;;;;;;;38.95;18.92;;;;;;;;;;2093803;28;20695;-79
2023/12/18 03:13:35;;;;;;;34.45;17.75;;;;;;;;;;2093036;28;20040;-79
2023/12/18 03:14:56;;;;;;;37.60;20.05;;;;;;;;;;2092419;28;20036;-78
2023/12/18 03:16:17;;;;;;;35.95;17.20;;;;;;;;;;2100158;28;20028;-78
2023/12/18 03:17:38;;;;;;;33.92;18.85;;;;;;;;;;2096127;28;20036;-79
2023/12/18 03:18:58;;;;;;;39.58;19.85;;;;;;;;;;2089526;28;20573;-79
2023/12/18 03:20:19;;;;;;;37.30;19.35;;;;;;;;;;2102694;28;20042;-79
2023/12/18 03:21:40;;;;;;;39.40;18.70;;;;;;;;;;2082056;28;20419;-79
2023/12/18 03:23:01;;;;;;;38.63;19.77;;;;;;;;;;2091366;28;20032;-79
2023/12/18 03:24:22;;;;;;;40.33;18.45;;;;;;;;;;2097510;28;20033;-79
2023/12/18 03:25:43;;;;;;;35.65;18.85;;;;;;;;;;2086319;28;20083;-79
2023/12/18 03:27:04;;;;;;;39.50;20.75;;;;;;;;;;2095575;28;20029;-79
2023/12/18 03:28:25;;;;;;;33.58;19.20;;;;;;;;;;2087353;28;20139;-78
2023/12/18 03:29:46;;;;;;;38.47;20.02;;;;;;;;;;2084230;28;20090;-79
2023/12/18 03:31:07;;;;;;;34.85;17.55;;;;;;;;;;2082848;28;20049;-78
2023/12/18 03:32:28;;;;;;;35.40;21.58;;;;;;;;;;2088112;28;20103;-78
2023/12/18 03:33:49;;;;;;;34.25;17.80;;;;;;;;;;2089956;28;20480;-79
2023/12/18 03:35:09;;;;;;;41.88;18.20;;;;;;;;;;2078948;28;20512;-79
2023/12/18 03:36:30;;;;;;;34.33;19.00;;;;;;;;;;2086684;28;20033;-79
2023/12/18 03:37:51;;;;;;;34.67;19.02;;;;;;;;;;2087705;28;20067;-79
2023/12/18 03:39:12;;;;;;;38.05;19.00;;;;;;;;;;2106296;28;20547;-79
2023/12/18 03:40:33;;;;;;;31.98;18.52;;;;;;;;;;2091881;28;20037;-79
2023/12/18 03:41:54;;;;;;;37.72;20.30;;;;;;;;;;2101974;28;20039;-78
2023/12/18 03:43:15;;;;;;;40.53;17.95;;;;;;;;;;2096960;28;20036;-79
2023/12/18 03:44:36;;;;;;;39.17;18.45;;;;;;;;;;2094135;28;20028;-79
2023/12/18 03:45:56;;;;;;;33.83;19.38;;;;;;;;;;2097233;28;20032;-79
2023/12/18 03:47:17;;;;;;;45.90;19.10;;;;;;;;;;2094626;28;20095;-79
2023/12/18 03:48:38;;;;;;;44.13;21.05;;;;;;;;;;2093911;28;20028;-79
2023/12/18 03:49:59;;;;;;;43.13;19.10;;;;;;;;;;2097337;28;20032;-79
2023/12/18 03:51:20;;;;;;;35.35;18.23;;;;;;;;;;2089437;28;20041;-79
2023/12/18 03:52:41;;;;;;;41.20;19.92;;;;;;;;;;2085558;28;20033;-78
2023/12/18 03:54:02;;;;;;;44.95;20.13;;;;;;;;;;2091748;28;20029;-78
2023/12/18 03:55:23;;;;;;;41.05;19.60;;;;;;;;;;2090071;28;20040;-77
2023/12/18 03:56:44;;;;;;;34.25;18.75;;;;;;;;;;2086174;28;20037;-78
2023/12/18 03:58:05;;;;;;;38.55;19.25;;;;;;;;;;2084738;28;20037;-78
2023/12/18 03:59:26;;;;;;;34.42;18.23;;;;;;;;;;2081225;28;20033;-77
2023/12/18 04:00:47;;;;;;;38.22;19.48;;;;;;;;;;2102163;28;20024;-78
2023/12/18 04:02:08;;;;;;;37.90;20.90;;;;;;;;;;2087402;28;20029;-77
2023/12/18 04:03:29;;;;;;;43.28;21.00;;;;;;;;;;2088551;28;20558;-78
2023/12/18 04:04:52;;;;;;;41.05;19.42;;;;;;;;;;2087040;28;20285;-78
2023/12/18 04:06:13;;;;;;;38.55;19.17;;;;;;;;;;2086618;28;20025;-78
2023/12/18 04:07:34;;;;;;;37.33;18.88;;;;;;;;;;2075069;28;20046;-78
2023/12/18 04:08:55;;;;;;;56.38;23.90;;;;;;;;;;2075481;28;20041;-78
2023/12/18 04:10:16;;;;;;;46.10;21.98;;;;;;;;;;2077281;28;20045;-78
2023/12/18 04:11:37;;;;;;;37.38;21.15;;;;;;;;;;2076621;28;20041;-79
2023/12/18 04:13:00;;;;;;;43.15;20.50;;;;;;;;;;2075386;28;20481;-79
2023/12/18 04:14:21;;;;;;;40.92;19.08;;;;;;;;;;2078233;28;20479;-79
2023/12/18 04:15:42;;;;;;;41.45;20.05;;;;;;;;;;2079147;28;20037;-79
2023/12/18 04:17:03;;;;;;;43.28;18.58;;;;;;;;;;2073730;28;20029;-78
2023/12/18 04:18:24;;;;;;;49.30;22.92;;;;;;;;;;2074695;28;20406;-78
2023/12/18 04:19:45;;;;;;;39.95;19.80;;;;;;;;;;2087307;28;20124;-79
2023/12/18 04:21:06;;;;;;;38.63;20.33;;;;;;;;;;2081713;28;20044;-79
2023/12/18 04:22:27;;;;;;;42.30;23.83;;;;;;;;;;2072991;28;20512;-80
2023/12/18 04:23:47;;;;;;;34.97;20.00;;;;;;;;;;2076974;28;20037;-80
2023/12/18 04:25:08;;;;;;;39.88;19.58;;;;;;;;;;2077371;28;20037;-81
2023/12/18 04:26:29;;;;;;;33.88;20.20;;;;;;;;;;2074320;28;20037;-78
2023/12/18 04:27:50;;;;;;;39.20;20.48;;;;;;;;;;2074844;28;20033;-79
2023/12/18 04:29:11;;;;;;;46.80;25.83;;;;;;;;;;2083033;28;20055;-79
2023/12/18 04:30:32;;;;;;;40.40;21.38;;;;;;;;;;2082507;28;20064;-81
2023/12/18 04:31:53;;;;;;;41.45;21.98;;;;;;;;;;2080094;28;20033;-80
2023/12/18 04:33:14;;;;;;;37.65;21.75;;;;;;;;;;2076573;28;20084;-80
2023/12/18 04:34:35;;;;;;;37.80;19.10;;;;;;;;;;2078945;28;20048;-80
2023/12/18 04:35:56;;;;;;;36.20;19.58;;;;;;;;;;2078606;28;21150;-80
2023/12/18 04:37:17;;;;;;;39.95;20.45;;;;;;;;;;2093261;28;20033;-80
2023/12/18 04:38:39;;;;;;;38.63;20.48;;;;;;;;;;2081425;28;20048;-79
2023/12/18 04:40:00;;;;;;;38.60;21.02;;;;;;;;;;2077679;28;20051;-80
2023/12/18 04:41:22;;;;;;;37.35;19.98;;;;;;;;;;2075051;28;20531;-79
2023/12/18 04:42:43;;;;;;;36.55;21.60;;;;;;;;;;2075767;28;20037;-80
2023/12/18 04:44:05;;;;;;;39.25;20.75;;;;;;;;;;2078176;28;20037;-80
2023/12/18 04:45:26;;;;;;;35.92;18.30;;;;;;;;;;2085891;28;20060;-79
2023/12/18 04:46:47;;;;;;;38.15;21.88;;;;;;;;;;2095886;28;20078;-79
2023/12/18 04:48:08;;;;;;;37.33;19.60;;;;;;;;;;2081768;28;20068;-79
2023/12/18 04:49:29;;;;;;;43.28;21.83;;;;;;;;;;2084758;28;20033;-79
2023/12/18 04:50:50;;;;;;;38.28;21.17;;;;;;;;;;2078908;28;20037;-79
2023/12/18 04:52:11;;;;;;;45.53;23.27;;;;;;;;;;2075310;28;20380;-80
2023/12/18 04:53:33;;;;;;;39.33;20.92;;;;;;;;;;2075432;28;20041;-79
2023/12/18 04:54:54;;;;;;;35.35;19.27;;;;;;;;;;2085148;28;20064;-79
2023/12/18 04:56:15;;;;;;;42.70;20.30;;;;;;;;;;2079413;28;20501;-79
2023/12/18 04:57:36;;;;;;;40.03;19.13;;;;;;;;;;2090925;28;20059;-80
2023/12/18 04:58:56;;;;;;;32.33;18.70;;;;;;;;;;2080038;28;20477;-79
2023/12/18 05:00:17;;;;;;;39.92;20.30;;;;;;;;;;2072897;28;20033;-80
2023/12/18 05:01:38;;;;;;;39.63;20.23;;;;;;;;;;2074518;28;20041;-80
2023/12/18 05:02:59;;;;;;;38.55;18.33;;;;;;;;;;2092362;28;20401;-80
2023/12/18 05:04:20;;;;;;;39.28;19.48;;;;;;;;;;2087761;28;20075;-80
2023/12/18 05:05:41;;;;;;;38.05;20.13;;;;;;;;;;2080928;28;20032;-79
2023/12/18 05:07:02;;;;;;;38.90;20.00;;;;;;;;;;2078682;28;20425;-79
2023/12/18 05:08:23;;;;;;;38.17;19.90;;;;;;;;;;2086167;28;20041;-79
2023/12/18 05:09:44;;;;;;;38.55;18.60;;;;;;;;;;2079821;28;20045;-80
2023/12/18 05:11:05;;;;;;;34.40;18.05;;;;;;;;;;2085326;28;20044;-80
2023/12/18 05:12:26;;;;;;;37.38;20.48;;;;;;;;;;2087199;28;20037;-80
2023/12/18 05:13:47;;;;;;;44.78;20.20;;;;;;;;;;2087549;28;20052;-80
2023/12/18 05:15:08;;;;;;;43.53;20.50;;;;;;;;;;2079483;28;20045;-79
2023/12/18 05:16:29;;;;;;;38.22;20.15;;;;;;;;;;2072851;28;20033;-79
2023/12/18 05:17:50;;;;;;;37.72;19.67;;;;;;;;;;2086271;28;20083;-79
2023/12/18 05:19:11;;;;;;;34.05;19.65;;;;;;;;;;2077085;28;20393;-79
2023/12/18 05:20:31;;;;;;;45.20;20.73;;;;;;;;;;2084788;28;20029;-79
2023/12/18 05:21:52;;;;;;;38.28;20.85;;;;;;;;;;2082484;28;20036;-79
2023/12/18 05:23:13;;;;;;;41.45;20.98;;;;;;;;;;2082637;28;20083;-79
2023/12/18 05:24:34;;;;;;;38.00;20.23;;;;;;;;;;2092680;28;20033;-79
2023/12/18 05:25:55;;;;;;;37.75;18.55;;;;;;;;;;2087378;28;20554;-79
2023/12/18 05:27:17;;;;;;;42.35;19.98;;;;;;;;;;2089729;28;20047;-79
2023/12/18 05:28:38;;;;;;;40.38;24.45;;;;;;;;;;2095083;28;20021;-80
2023/12/18 05:29:59;;;;;;;43.40;20.52;;;;;;;;;;2093238;28;20028;-79
2023/12/18 05:31:20;;;;;;;38.33;19.00;;;;;;;;;;2094457;28;20108;-80
2023/12/18 05:32:41;;;;;;;44.00;20.80;;;;;;;;;;2093093;28;20459;-79
2023/12/18 05:34:04;;;;;;;40.38;19.42;;;;;;;;;;2093609;28;20052;-79
2023/12/18 05:35:25;;;;;;;52.33;19.48;;;;;;;;;;2097422;28;20025;-79
2023/12/18 05:36:46;;;;;;;44.20;24.38;;;;;;;;;;2089599;28;20079;-79
2023/12/18 05:38:07;;;;;;;37.90;19.30;;;;;;;;;;2093053;28;20028;-79
2023/12/18 05:39:28;;;;;;;43.45;20.77;;;;;;;;;;2091163;28;20044;-79
2023/12/18 05:40:49;;;;;;;41.65;21.13;;;;;;;;;;2088993;28;20092;-79
2023/12/18 05:42:11;;;;;;;42.60;20.25;;;;;;;;;;2088636;28;20021;-78
2023/12/18 05:43:31;;;;;;;39.30;19.98;;;;;;;;;;2080259;28;20018;-81
2023/12/18 05:44:52;;;;;;;36.65;20.65;;;;;;;;;;2086898;28;20021;-79
2023/12/18 05:46:13;;;;;;;46.50;20.08;;;;;;;;;;2095656;28;20127;-79
2023/12/18 05:47:34;;;;;;;42.80;22.17;;;;;;;;;;2092281;28;20488;-81
2023/12/18 05:48:55;;;;;;;37.25;19.65;;;;;;;;;;2095263;28;20048;-80
2023/12/18 05:50:16;;;;;;;36.55;19.55;;;;;;;;;;2094334;28;20032;-81
2023/12/18 05:51:37;;;;;;;45.83;23.20;;;;;;;;;;2085022;28;20041;-81
2023/12/18 05:52:58;;;;;;;46.22;24.45;;;;;;;;;;2089402;28;20024;-80
2023/12/18 05:54:19;;;;;;;40.17;20.15;;;;;;;;;;2095075;28;20118;-81
2023/12/18 05:55:40;;;;;;;40.35;20.42;;;;;;;;;;2092133;28;20420;-81
2023/12/18 05:57:01;;;;;;;37.42;19.92;;;;;;;;;;2086356;28;20075;-80
2023/12/18 05:58:22;;;;;;;48.35;23.25;;;;;;;;;;2083736;28;20021;-80
2023/12/18 05:59:43;;;;;;;41.20;20.60;;;;;;;;;;2092264;28;20172;-81
2023/12/18 06:01:04;;;;;;;43.22;20.88;;;;;;;;;;2082993;28;20036;-80
2023/12/18 06:02:24;;;;;;;37.95;18.80;;;;;;;;;;2076792;28;20464;-81
2023/12/18 06:03:45;;;;;;;42.70;21.40;;;;;;;;;;2087262;28;20021;-81
2023/12/18 06:05:07;;;;;;;38.08;19.23;;;;;;;;;;2086790;28;20052;-81
2023/12/18 06:06:28;;;;;;;42.58;24.52;;;;;;;;;;2088348;28;20032;-81
2023/12/18 06:07:49;;;;;;;39.42;21.45;;;;;;;;;;2085101;28;20045;-80
2023/12/18 06:09:10;;;;;;;46.47;20.58;;;;;;;;;;2080340;28;20038;-81
2023/12/18 06:10:30;;;;;;;41.88;20.55;;;;;;;;;;2082859;28;20078;-80
2023/12/18 06:11:51;;;;;;;37.90;20.80;;;;;;;;;;2084793;28;20464;-80
2023/12/18 06:13:13;;;;;;;45.55;20.90;;;;;;;;;;2090860;28;20091;-81
2023/12/18 06:14:34;;;;;;;45.00;19.48;;;;;;;;;;2093443;28;20028;-81
2023/12/18 06:15:55;;;;;;;46.03;21.55;;;;;;;;;;2098278;28;20040;-81
2023/12/18 06:17:16;;;;;;;48.53;23.58;;;;;;;;;;2095796;28;20040;-81
2023/12/18 06:18:38;;;;;;;47.15;22.30;;;;;;;;;;2092257;28;20104;-81
2023/12/18 06:19:58;;;;;;;39.58;18.70;;;;;;;;;;2094348;28;20581;-81
2023/12/18 06:21:19;;;;;;;47.20;20.77;;;;;;;;;;2091273;28;20028;-81
2023/12/18 06:22:40;;;;;;;40.30;19.50;;;;;;;;;;2081487;28;20053;-81
2023/12/18 06:24:01;;;;;;;39.50;19.35;;;;;;;;;;2089356;28;20040;-82
2023/12/18 06:25:23;;;;;;;46.35;20.05;;;;;;;;;;2090099;28;20026;-82
2023/12/18 06:26:44;;;;;;;37.50;18.52;;;;;;;;;;2082423;28;20022;-81
2023/12/18 06:28:05;;;;;;;44.25;19.17;;;;;;;;;;2089481;28;20033;-82
2023/12/18 06:29:27;;;;;;;37.33;19.63;;;;;;;;;;2089551;28;20095;-81
2023/12/18 06:30:47;;;;;;;42.63;20.08;;;;;;;;;;2088393;28;20020;-78
2023/12/18 06:32:09;;;;;;;49.42;20.27;;;;;;;;;;2087180;28;20523;-78
2023/12/18 06:33:30;;;;;;;42.70;19.95;;;;;;;;;;2087025;28;20052;-78
2023/12/18 06:34:50;;;;;;;39.95;21.20;;;;;;;;;;2085349;28;20025;-78
2023/12/18 06:36:14;;;;;;;35.45;20.25;;;;;;;;;;2086076;28;20040;-78
2023/12/18 06:37:35;;;;;;;44.08;20.40;;;;;;;;;;2088796;28;20025;-78
2023/12/18 06:38:56;;;;;;;43.95;23.92;;;;;;;;;;2088539;28;20024;-78
2023/12/18 06:40:16;;;;;;;43.15;19.60;;;;;;;;;;2088389;28;20037;-78
2023/12/18 06:41:37;;;;;;;44.65;20.58;;;;;;;;;;2081586;28;20025;-76
2023/12/18 06:42:58;;;;;;;44.92;20.10;;;;;;;;;;2091583;28;20470;-78
2023/12/18 06:44:19;;;;;;;42.90;20.70;;;;;;;;;;2090412;28;20033;-78
2023/12/18 06:45:40;;;;;;;40.35;18.88;;;;;;;;;;2095383;28;20080;-78
2023/12/18 06:47:01;;;;;;;35.35;18.95;;;;;;;;;;2087501;28;20037;-78
2023/12/18 06:48:23;;;;;;;45.45;23.40;;;;;;;;;;2084312;28;20040;-78
2023/12/18 06:49:44;;;;;;;46.20;22.33;;;;;;;;;;2090658;28;20025;-78
2023/12/18 06:51:07;;;;;;;40.00;22.58;;;;;;;;;;2089985;28;20045;-78
2023/12/18 06:52:27;;;;;;;41.20;19.90;;;;;;;;;;2077261;28;20042;-78
2023/12/18 06:53:50;;;;;;;43.45;20.85;;;;;;;;;;2083963;28;20033;-78
2023/12/18 06:55:11;;;;;;;39.00;19.42;;;;;;;;;;2087159;28;20032;-78
2023/12/18 06:56:32;;;;;;;45.95;19.58;;;;;;;;;;2096148;28;20021;-78
2023/12/18 06:57:53;;;;;;;38.47;19.00;;;;;;;;;;2093620;28;20489;-78
2023/12/18 06:59:14;;;;;;;37.25;19.45;;;;;;;;;;2087219;28;20060;-78
2023/12/18 07:00:35;;;;;;;42.38;19.30;;;;;;;;;;2090172;28;20148;-78
2023/12/18 07:01:56;;;;;;;44.70;21.80;;;;;;;;;;2088669;28;20033;-78
2023/12/18 07:03:16;;;;;;;43.45;19.30;;;;;;;;;;2088868;28;20032;-78
2023/12/18 07:04:37;;;;;;;38.42;19.92;;;;;;;;;;2088577;28;20037;-78
2023/12/18 07:05:58;;;;;;;37.67;19.10;;;;;;;;;;2089719;28;20032;-78
2023/12/18 07:07:19;;;;;;;42.05;18.85;;;;;;;;;;2092540;28;20041;-78
2023/12/18 07:08:40;;;;;;;39.22;19.42;;;;;;;;;;2090413;28;20037;-79
2023/12/18 07:10:01;;;;;;;41.13;20.65;;;;;;;;;;2094927;28;20051;-78
2023/12/18 07:11:22;;;;;;;41.08;18.98;;;;;;;;;;2085945;28;20094;-78
2023/12/18 07:12:43;;;;;;;44.03;19.77;;;;;;;;;;2085359;28;20025;-76
2023/12/18 07:14:04;;;;;;;45.40;21.15;;;;;;;;;;2095062;28;20024;-76
2023/12/18 07:15:25;;;;;;;37.28;19.58;;;;;;;;;;2089819;28;20028;-75
2023/12/18 07:16:46;;;;;;;43.15;18.23;;;;;;;;;;2087221;28;20033;-76
2023/12/18 07:18:07;;;;;;;48.83;21.05;;;;;;;;;;2089588;28;20037;-76
2023/12/18 07:19:28;;;;;;;40.83;21.15;;;;;;;;;;2095159;28;20035;-76
2023/12/18 07:20:49;;;;;;;47.00;22.25;;;;;;;;;;2089937;28;20032;-76
2023/12/18 07:22:10;;;;;;;44.70;20.92;;;;;;;;;;2088638;28;20412;-76
2023/12/18 07:23:31;;;;;;;43.00;19.80;;;;;;;;;;2095715;28;20029;-76
2023/12/18 07:24:51;;;;;;;41.95;19.95;;;;;;;;;;2094380;28;20036;-75
2023/12/18 07:26:13;;;;;;;41.92;22.83;;;;;;;;;;2103202;28;20483;-75
2023/12/18 07:27:34;;;;;;;42.25;21.38;;;;;;;;;;2097596;28;20043;-75
2023/12/18 07:28:55;;;;;;;46.30;20.15;;;;;;;;;;2102574;28;20028;-78
2023/12/18 07:30:16;;;;;;;41.92;18.73;;;;;;;;;;2108110;28;20035;-77
2023/12/18 07:31:37;;;;;;;39.67;20.42;;;;;;;;;;2112512;28;20035;-78
2023/12/18 07:32:58;;;;;;;44.10;21.27;;;;;;;;;;2106161;28;20511;-77
2023/12/18 07:34:19;;;;;;;41.78;21.45;;;;;;;;;;2103338;28;20032;-77
2023/12/18 07:35:40;;;;;;;40.20;20.00;;;;;;;;;;2103779;28;20364;-77
2023/12/18 07:37:01;;;;;;;39.33;19.42;;;;;;;;;;2101998;28;20028;-77
2023/12/18 07:38:22;;;;;;;40.10;21.60;;;;;;;;;;2110731;28;20459;-77
2023/12/18 07:39:43;;;;;;;39.50;21.67;;;;;;;;;;2101669;28;20025;-76
2023/12/18 07:41:04;;;;;;;39.28;19.42;;;;;;;;;;2094131;28;20029;-77
2023/12/18 07:42:25;;;;;;;36.78;20.15;;;;;;;;;;2103322;28;20063;-77
2023/12/18 07:43:46;;;;;;;39.75;19.92;;;;;;;;;;2097265;28;20445;-78
2023/12/18 07:45:07;;;;;;;42.55;22.58;;;;;;;;;;2096551;28;20037;-78
2023/12/18 07:46:28;;;;;;;48.25;22.25;;;;;;;;;;2099070;28;20028;-78
2023/12/18 07:47:49;;;;;;;43.80;21.73;;;;;;;;;;2105273;28;20070;-78
2023/12/18 07:49:10;;;;;;;43.28;22.08;;;;;;;;;;2096900;28;20028;-78
2023/12/18 07:50:31;;;;;;;49.20;22.85;;;;;;;;;;2103645;28;20039;-77
2023/12/18 07:51:52;;;;;;;39.22;20.05;;;;;;;;;;2097307;28;20389;-76